sensor_id;sensor_type;location;lat;lon;timestamp;P1;durP1;ratioP1;P2;durP2;ratioP2
9836;SDS011;4957;51.412;6.724;2023-06-14T00:00:07;5.77;;;4.20;;
9836;SDS011;4957;51.412;6.724;2023-06-14T00:02:33;7.67;;;4.40;;
9836;SDS011;4957;51.412;6.724;2023-06-14T00:04:58;10.00;;;4.73;;
9836;SDS011;4957;51.412;6.724;2023-06-14T00:07:33;7.53;;;5.10;;
9836;SDS011;4957;51.412;6.724;2023-06-14T00:10:03;7.43;;;4.77;;
9836;SDS011;4957;51.412;6.724;2023-06-14T00:12:30;8.70;;;4.57;;
9836;SDS011;4957;51.412;6.724;2023-06-14T00:14:56;10.87;;;4.93;;
9836;SDS011;4957;51.412;6.724;2023-06-14T00:17:22;8.77;;;5.23;;
9836;SDS011;4957;51.412;6.724;2023-06-14T00:19:47;7.47;;;4.60;;
9836;SDS011;4957;51.412;6.724;2023-06-14T00:22:13;6.53;;;5.13;;
9836;SDS011;4957;51.412;6.724;2023-06-14T00:24:39;7.97;;;4.90;;
9836;SDS011;4957;51.412;6.724;2023-06-14T00:27:04;7.30;;;4.90;;
9836;SDS011;4957;51.412;6.724;2023-06-14T00:29:30;7.97;;;4.63;;
9836;SDS011;4957;51.412;6.724;2023-06-14T00:31:56;7.47;;;5.27;;
9836;SDS011;4957;51.412;6.724;2023-06-14T00:34:21;6.93;;;5.30;;
9836;SDS011;4957;51.412;6.724;2023-06-14T00:36:47;7.13;;;5.00;;
9836;SDS011;4957;51.412;6.724;2023-06-14T00:39:13;6.97;;;5.07;;
9836;SDS011;4957;51.412;6.724;2023-06-14T00:41:39;8.07;;;5.40;;
9836;SDS011;4957;51.412;6.724;2023-06-14T00:44:05;8.63;;;4.83;;
9836;SDS011;4957;51.412;6.724;2023-06-14T00:46:30;5.50;;;4.93;;
9836;SDS011;4957;51.412;6.724;2023-06-14T00:48:56;6.03;;;5.13;;
9836;SDS011;4957;51.412;6.724;2023-06-14T00:51:23;6.90;;;5.30;;
9836;SDS011;4957;51.412;6.724;2023-06-14T00:53:50;6.53;;;4.97;;
9836;SDS011;4957;51.412;6.724;2023-06-14T00:56:16;6.57;;;5.20;;
9836;SDS011;4957;51.412;6.724;2023-06-14T00:58:42;10.83;;;4.43;;
9836;SDS011;4957;51.412;6.724;2023-06-14T01:01:08;7.47;;;5.10;;
9836;SDS011;4957;51.412;6.724;2023-06-14T01:03:34;7.23;;;5.23;;
9836;SDS011;4957;51.412;6.724;2023-06-14T01:06:05;8.50;;;4.73;;
9836;SDS011;4957;51.412;6.724;2023-06-14T01:08:49;6.70;;;5.20;;
9836;SDS011;4957;51.412;6.724;2023-06-14T01:11:20;7.33;;;4.93;;
9836;SDS011;4957;51.412;6.724;2023-06-14T01:13:52;8.73;;;4.97;;
9836;SDS011;4957;51.412;6.724;2023-06-14T01:16:19;7.03;;;4.70;;
9836;SDS011;4957;51.412;6.724;2023-06-14T01:18:45;5.47;;;4.80;;
9836;SDS011;4957;51.412;6.724;2023-06-14T01:21:21;6.00;;;4.77;;
9836;SDS011;4957;51.412;6.724;2023-06-14T01:23:48;9.07;;;4.93;;
9836;SDS011;4957;51.412;6.724;2023-06-14T01:26:18;6.57;;;4.80;;
9836;SDS011;4957;51.412;6.724;2023-06-14T01:28:45;7.47;;;4.90;;
9836;SDS011;4957;51.412;6.724;2023-06-14T01:31:16;8.53;;;4.60;;
9836;SDS011;4957;51.412;6.724;2023-06-14T01:33:43;5.63;;;4.53;;
9836;SDS011;4957;51.412;6.724;2023-06-14T01:36:10;8.07;;;4.90;;
9836;SDS011;4957;51.412;6.724;2023-06-14T01:38:36;5.40;;;4.30;;
9836;SDS011;4957;51.412;6.724;2023-06-14T01:41:02;8.43;;;4.70;;
9836;SDS011;4957;51.412;6.724;2023-06-14T01:43:30;5.07;;;4.67;;
9836;SDS011;4957;51.412;6.724;2023-06-14T01:45:56;7.80;;;4.73;;
9836;SDS011;4957;51.412;6.724;2023-06-14T01:48:24;10.00;;;4.50;;
9836;SDS011;4957;51.412;6.724;2023-06-14T01:50:49;6.37;;;4.90;;
9836;SDS011;4957;51.412;6.724;2023-06-14T01:53:16;6.43;;;4.40;;
9836;SDS011;4957;51.412;6.724;2023-06-14T01:55:42;7.50;;;4.73;;
9836;SDS011;4957;51.412;6.724;2023-06-14T01:58:11;9.67;;;4.60;;
9836;SDS011;4957;51.412;6.724;2023-06-14T02:00:37;6.20;;;4.17;;
9836;SDS011;4957;51.412;6.724;2023-06-14T02:03:03;9.00;;;4.47;;
9836;SDS011;4957;51.412;6.724;2023-06-14T02:05:31;9.33;;;4.60;;
9836;SDS011;4957;51.412;6.724;2023-06-14T02:07:57;6.57;;;4.27;;
9836;SDS011;4957;51.412;6.724;2023-06-14T02:10:23;9.53;;;4.67;;
9836;SDS011;4957;51.412;6.724;2023-06-14T02:12:48;6.50;;;4.23;;
9836;SDS011;4957;51.412;6.724;2023-06-14T02:15:15;6.20;;;4.60;;
9836;SDS011;4957;51.412;6.724;2023-06-14T02:17:45;7.40;;;4.30;;
9836;SDS011;4957;51.412;6.724;2023-06-14T02:20:12;7.23;;;4.10;;
9836;SDS011;4957;51.412;6.724;2023-06-14T02:22:38;5.90;;;4.17;;
9836;SDS011;4957;51.412;6.724;2023-06-14T02:25:04;6.47;;;4.37;;
9836;SDS011;4957;51.412;6.724;2023-06-14T02:27:30;4.13;;;3.73;;
9836;SDS011;4957;51.412;6.724;2023-06-14T02:29:56;7.70;;;4.00;;
9836;SDS011;4957;51.412;6.724;2023-06-14T02:32:22;4.40;;;4.00;;
9836;SDS011;4957;51.412;6.724;2023-06-14T02:34:48;7.43;;;4.13;;
9836;SDS011;4957;51.412;6.724;2023-06-14T02:37:15;7.90;;;4.47;;
9836;SDS011;4957;51.412;6.724;2023-06-14T02:39:41;4.97;;;3.80;;
9836;SDS011;4957;51.412;6.724;2023-06-14T02:42:07;5.90;;;4.20;;
9836;SDS011;4957;51.412;6.724;2023-06-14T02:44:32;6.27;;;3.90;;
9836;SDS011;4957;51.412;6.724;2023-06-14T02:46:58;7.33;;;5.00;;
9836;SDS011;4957;51.412;6.724;2023-06-14T02:49:25;7.17;;;4.33;;
9836;SDS011;4957;51.412;6.724;2023-06-14T02:51:51;7.07;;;3.83;;
9836;SDS011;4957;51.412;6.724;2023-06-14T02:54:17;9.00;;;4.60;;
9836;SDS011;4957;51.412;6.724;2023-06-14T02:56:43;7.30;;;4.20;;
9836;SDS011;4957;51.412;6.724;2023-06-14T02:59:09;4.83;;;4.00;;
9836;SDS011;4957;51.412;6.724;2023-06-14T03:01:35;6.37;;;4.50;;
9836;SDS011;4957;51.412;6.724;2023-06-14T03:04:01;9.20;;;4.03;;
9836;SDS011;4957;51.412;6.724;2023-06-14T03:06:28;8.83;;;4.43;;
9836;SDS011;4957;51.412;6.724;2023-06-14T03:08:58;7.57;;;4.00;;
9836;SDS011;4957;51.412;6.724;2023-06-14T03:11:27;7.83;;;3.77;;
9836;SDS011;4957;51.412;6.724;2023-06-14T03:13:53;8.30;;;4.70;;
9836;SDS011;4957;51.412;6.724;2023-06-14T03:16:20;7.23;;;4.50;;
9836;SDS011;4957;51.412;6.724;2023-06-14T03:18:48;6.43;;;4.23;;
9836;SDS011;4957;51.412;6.724;2023-06-14T03:21:15;8.90;;;3.83;;
9836;SDS011;4957;51.412;6.724;2023-06-14T03:23:41;9.07;;;4.10;;
9836;SDS011;4957;51.412;6.724;2023-06-14T03:26:07;9.93;;;4.13;;
9836;SDS011;4957;51.412;6.724;2023-06-14T03:28:33;5.23;;;3.87;;
9836;SDS011;4957;51.412;6.724;2023-06-14T03:30:59;5.73;;;3.93;;
9836;SDS011;4957;51.412;6.724;2023-06-14T03:33:24;6.50;;;3.77;;
9836;SDS011;4957;51.412;6.724;2023-06-14T03:35:50;4.67;;;4.10;;
9836;SDS011;4957;51.412;6.724;2023-06-14T03:38:16;5.33;;;3.83;;
9836;SDS011;4957;51.412;6.724;2023-06-14T03:40:42;7.47;;;3.67;;
9836;SDS011;4957;51.412;6.724;2023-06-14T03:43:09;5.30;;;3.73;;
9836;SDS011;4957;51.412;6.724;2023-06-14T03:45:35;5.57;;;4.03;;
9836;SDS011;4957;51.412;6.724;2023-06-14T03:48:01;5.83;;;3.97;;
9836;SDS011;4957;51.412;6.724;2023-06-14T03:50:27;6.67;;;4.00;;
9836;SDS011;4957;51.412;6.724;2023-06-14T03:52:53;5.00;;;3.67;;
9836;SDS011;4957;51.412;6.724;2023-06-14T03:55:19;10.27;;;3.67;;
9836;SDS011;4957;51.412;6.724;2023-06-14T03:57:45;6.70;;;4.20;;
9836;SDS011;4957;51.412;6.724;2023-06-14T04:00:10;7.90;;;4.03;;
9836;SDS011;4957;51.412;6.724;2023-06-14T04:02:37;9.07;;;3.90;;
9836;SDS011;4957;51.412;6.724;2023-06-14T04:05:03;6.53;;;3.63;;
9836;SDS011;4957;51.412;6.724;2023-06-14T04:07:33;5.87;;;3.47;;
9836;SDS011;4957;51.412;6.724;2023-06-14T04:10:04;7.90;;;3.40;;
9836;SDS011;4957;51.412;6.724;2023-06-14T04:12:31;6.17;;;3.70;;
9836;SDS011;4957;51.412;6.724;2023-06-14T04:14:57;5.10;;;3.87;;
9836;SDS011;4957;51.412;6.724;2023-06-14T04:17:23;9.60;;;3.60;;
9836;SDS011;4957;51.412;6.724;2023-06-14T04:19:48;6.63;;;3.67;;
9836;SDS011;4957;51.412;6.724;2023-06-14T04:22:14;4.00;;;3.50;;
9836;SDS011;4957;51.412;6.724;2023-06-14T04:24:39;4.57;;;3.50;;
9836;SDS011;4957;51.412;6.724;2023-06-14T04:27:07;12.00;;;3.60;;
9836;SDS011;4957;51.412;6.724;2023-06-14T04:29:33;6.20;;;3.60;;
9836;SDS011;4957;51.412;6.724;2023-06-14T04:31:58;6.63;;;3.43;;
9836;SDS011;4957;51.412;6.724;2023-06-14T04:34:27;5.70;;;3.33;;
9836;SDS011;4957;51.412;6.724;2023-06-14T04:36:58;4.90;;;3.37;;
9836;SDS011;4957;51.412;6.724;2023-06-14T04:39:26;10.70;;;3.50;;
9836;SDS011;4957;51.412;6.724;2023-06-14T04:41:52;5.03;;;3.73;;
9836;SDS011;4957;51.412;6.724;2023-06-14T04:44:21;7.03;;;3.50;;
9836;SDS011;4957;51.412;6.724;2023-06-14T04:46:49;7.63;;;3.67;;
9836;SDS011;4957;51.412;6.724;2023-06-14T04:49:15;5.60;;;3.10;;
9836;SDS011;4957;51.412;6.724;2023-06-14T04:51:42;6.60;;;3.47;;
9836;SDS011;4957;51.412;6.724;2023-06-14T04:54:11;6.90;;;3.30;;
9836;SDS011;4957;51.412;6.724;2023-06-14T04:56:40;9.37;;;3.20;;
9836;SDS011;4957;51.412;6.724;2023-06-14T04:59:07;6.23;;;3.37;;
9836;SDS011;4957;51.412;6.724;2023-06-14T05:01:34;6.60;;;3.77;;
9836;SDS011;4957;51.412;6.724;2023-06-14T05:04:00;5.27;;;2.83;;
9836;SDS011;4957;51.412;6.724;2023-06-14T05:06:26;5.13;;;3.27;;
9836;SDS011;4957;51.412;6.724;2023-06-14T05:08:53;7.77;;;3.47;;
9836;SDS011;4957;51.412;6.724;2023-06-14T05:11:19;6.20;;;3.17;;
9836;SDS011;4957;51.412;6.724;2023-06-14T05:13:45;4.87;;;3.23;;
9836;SDS011;4957;51.412;6.724;2023-06-14T05:16:11;5.27;;;3.10;;
9836;SDS011;4957;51.412;6.724;2023-06-14T05:18:38;5.90;;;3.47;;
9836;SDS011;4957;51.412;6.724;2023-06-14T05:21:05;6.00;;;3.10;;
9836;SDS011;4957;51.412;6.724;2023-06-14T05:23:31;10.63;;;3.67;;
9836;SDS011;4957;51.412;6.724;2023-06-14T05:25:56;8.70;;;3.50;;
9836;SDS011;4957;51.412;6.724;2023-06-14T05:28:22;6.80;;;2.90;;
9836;SDS011;4957;51.412;6.724;2023-06-14T05:30:48;7.10;;;3.10;;
9836;SDS011;4957;51.412;6.724;2023-06-14T05:33:14;6.87;;;3.50;;
9836;SDS011;4957;51.412;6.724;2023-06-14T05:35:40;7.13;;;3.43;;
9836;SDS011;4957;51.412;6.724;2023-06-14T05:38:06;8.40;;;3.33;;
9836;SDS011;4957;51.412;6.724;2023-06-14T05:40:32;6.53;;;3.37;;
9836;SDS011;4957;51.412;6.724;2023-06-14T05:42:58;5.03;;;2.80;;
9836;SDS011;4957;51.412;6.724;2023-06-14T05:45:24;5.37;;;3.37;;
9836;SDS011;4957;51.412;6.724;2023-06-14T05:47:50;5.00;;;2.77;;
9836;SDS011;4957;51.412;6.724;2023-06-14T05:50:16;6.30;;;3.17;;
9836;SDS011;4957;51.412;6.724;2023-06-14T05:52:42;6.73;;;2.90;;
9836;SDS011;4957;51.412;6.724;2023-06-14T05:55:07;5.57;;;3.47;;
9836;SDS011;4957;51.412;6.724;2023-06-14T05:57:34;5.03;;;3.37;;
9836;SDS011;4957;51.412;6.724;2023-06-14T06:00:01;5.57;;;3.10;;
9836;SDS011;4957;51.412;6.724;2023-06-14T06:02:34;7.30;;;3.30;;
9836;SDS011;4957;51.412;6.724;2023-06-14T06:05:00;5.43;;;3.37;;
9836;SDS011;4957;51.412;6.724;2023-06-14T06:07:25;6.20;;;3.67;;
9836;SDS011;4957;51.412;6.724;2023-06-14T06:09:51;6.50;;;3.10;;
9836;SDS011;4957;51.412;6.724;2023-06-14T06:12:17;5.47;;;3.47;;
9836;SDS011;4957;51.412;6.724;2023-06-14T06:14:42;7.03;;;3.23;;
9836;SDS011;4957;51.412;6.724;2023-06-14T06:17:08;6.37;;;2.80;;
9836;SDS011;4957;51.412;6.724;2023-06-14T06:19:34;5.07;;;3.23;;
9836;SDS011;4957;51.412;6.724;2023-06-14T06:21:59;4.90;;;3.03;;
9836;SDS011;4957;51.412;6.724;2023-06-14T06:24:25;6.63;;;3.47;;
9836;SDS011;4957;51.412;6.724;2023-06-14T06:26:51;7.50;;;2.70;;
9836;SDS011;4957;51.412;6.724;2023-06-14T06:29:16;9.77;;;3.33;;
9836;SDS011;4957;51.412;6.724;2023-06-14T06:31:42;5.30;;;3.00;;
9836;SDS011;4957;51.412;6.724;2023-06-14T06:34:07;5.17;;;2.70;;
9836;SDS011;4957;51.412;6.724;2023-06-14T06:36:33;8.20;;;3.20;;
9836;SDS011;4957;51.412;6.724;2023-06-14T06:38:59;7.90;;;3.20;;
9836;SDS011;4957;51.412;6.724;2023-06-14T06:41:25;5.23;;;3.00;;
9836;SDS011;4957;51.412;6.724;2023-06-14T06:43:50;8.37;;;3.27;;
9836;SDS011;4957;51.412;6.724;2023-06-14T06:46:16;3.23;;;2.40;;
9836;SDS011;4957;51.412;6.724;2023-06-14T06:48:43;6.60;;;2.50;;
9836;SDS011;4957;51.412;6.724;2023-06-14T06:51:09;8.23;;;2.80;;
9836;SDS011;4957;51.412;6.724;2023-06-14T06:53:35;4.70;;;2.60;;
9836;SDS011;4957;51.412;6.724;2023-06-14T06:56:00;6.63;;;2.50;;
9836;SDS011;4957;51.412;6.724;2023-06-14T06:58:26;5.90;;;2.37;;
9836;SDS011;4957;51.412;6.724;2023-06-14T07:00:52;5.83;;;2.40;;
9836;SDS011;4957;51.412;6.724;2023-06-14T07:03:17;3.57;;;2.13;;
9836;SDS011;4957;51.412;6.724;2023-06-14T07:05:43;4.57;;;1.97;;
9836;SDS011;4957;51.412;6.724;2023-06-14T07:08:08;6.73;;;2.13;;
9836;SDS011;4957;51.412;6.724;2023-06-14T07:10:34;6.50;;;2.00;;
9836;SDS011;4957;51.412;6.724;2023-06-14T07:13:00;10.77;;;2.03;;
9836;SDS011;4957;51.412;6.724;2023-06-14T07:15:25;2.13;;;1.80;;
9836;SDS011;4957;51.412;6.724;2023-06-14T07:17:51;6.63;;;1.70;;
9836;SDS011;4957;51.412;6.724;2023-06-14T07:20:18;4.60;;;1.90;;
9836;SDS011;4957;51.412;6.724;2023-06-14T07:22:43;3.00;;;1.77;;
9836;SDS011;4957;51.412;6.724;2023-06-14T07:25:09;4.63;;;1.60;;
9836;SDS011;4957;51.412;6.724;2023-06-14T07:27:39;2.23;;;1.70;;
9836;SDS011;4957;51.412;6.724;2023-06-14T07:30:08;3.57;;;1.70;;
9836;SDS011;4957;51.412;6.724;2023-06-14T07:32:35;3.10;;;1.63;;
9836;SDS011;4957;51.412;6.724;2023-06-14T07:35:01;1.77;;;1.67;;
9836;SDS011;4957;51.412;6.724;2023-06-14T07:37:28;4.03;;;1.67;;
9836;SDS011;4957;51.412;6.724;2023-06-14T07:39:53;4.43;;;1.70;;
9836;SDS011;4957;51.412;6.724;2023-06-14T07:42:19;2.70;;;1.40;;
9836;SDS011;4957;51.412;6.724;2023-06-14T07:44:45;7.53;;;1.70;;
9836;SDS011;4957;51.412;6.724;2023-06-14T07:47:11;6.47;;;1.57;;
9836;SDS011;4957;51.412;6.724;2023-06-14T07:49:37;2.17;;;1.73;;
9836;SDS011;4957;51.412;6.724;2023-06-14T07:52:02;2.23;;;1.63;;
9836;SDS011;4957;51.412;6.724;2023-06-14T07:54:30;3.17;;;1.60;;
9836;SDS011;4957;51.412;6.724;2023-06-14T07:56:56;7.03;;;1.80;;
9836;SDS011;4957;51.412;6.724;2023-06-14T07:59:23;2.50;;;1.60;;
9836;SDS011;4957;51.412;6.724;2023-06-14T08:01:49;2.00;;;1.70;;
9836;SDS011;4957;51.412;6.724;2023-06-14T08:04:15;1.57;;;1.40;;
9836;SDS011;4957;51.412;6.724;2023-06-14T08:06:41;4.87;;;1.70;;
9836;SDS011;4957;51.412;6.724;2023-06-14T08:09:09;2.67;;;1.50;;
9836;SDS011;4957;51.412;6.724;2023-06-14T08:11:36;6.97;;;1.87;;
9836;SDS011;4957;51.412;6.724;2023-06-14T08:14:03;5.13;;;2.03;;
9836;SDS011;4957;51.412;6.724;2023-06-14T08:16:28;1.97;;;1.50;;
9836;SDS011;4957;51.412;6.724;2023-06-14T08:18:55;4.27;;;1.80;;
9836;SDS011;4957;51.412;6.724;2023-06-14T08:21:20;3.27;;;2.00;;
9836;SDS011;4957;51.412;6.724;2023-06-14T08:23:46;5.03;;;2.00;;
9836;SDS011;4957;51.412;6.724;2023-06-14T08:26:12;2.93;;;1.60;;
9836;SDS011;4957;51.412;6.724;2023-06-14T08:28:38;2.90;;;1.50;;
9836;SDS011;4957;51.412;6.724;2023-06-14T08:31:04;3.33;;;1.60;;
9836;SDS011;4957;51.412;6.724;2023-06-14T08:33:30;6.60;;;1.93;;
9836;SDS011;4957;51.412;6.724;2023-06-14T08:35:58;1.70;;;1.60;;
9836;SDS011;4957;51.412;6.724;2023-06-14T08:38:24;2.27;;;1.50;;
9836;SDS011;4957;51.412;6.724;2023-06-14T08:40:50;1.80;;;1.50;;
9836;SDS011;4957;51.412;6.724;2023-06-14T08:43:17;5.47;;;1.87;;
9836;SDS011;4957;51.412;6.724;2023-06-14T08:45:43;3.23;;;1.70;;
9836;SDS011;4957;51.412;6.724;2023-06-14T08:48:11;3.40;;;1.70;;
9836;SDS011;4957;51.412;6.724;2023-06-14T08:50:42;4.33;;;1.63;;
9836;SDS011;4957;51.412;6.724;2023-06-14T08:53:11;4.53;;;1.70;;
9836;SDS011;4957;51.412;6.724;2023-06-14T08:55:45;3.40;;;1.80;;
9836;SDS011;4957;51.412;6.724;2023-06-14T08:58:12;4.43;;;1.40;;
9836;SDS011;4957;51.412;6.724;2023-06-14T09:00:39;5.80;;;1.40;;
9836;SDS011;4957;51.412;6.724;2023-06-14T09:03:06;3.13;;;1.70;;
9836;SDS011;4957;51.412;6.724;2023-06-14T09:05:38;3.30;;;1.80;;
9836;SDS011;4957;51.412;6.724;2023-06-14T09:08:04;6.23;;;1.83;;
9836;SDS011;4957;51.412;6.724;2023-06-14T09:10:30;9.03;;;1.60;;
9836;SDS011;4957;51.412;6.724;2023-06-14T09:12:58;4.27;;;1.57;;
9836;SDS011;4957;51.412;6.724;2023-06-14T09:15:26;5.90;;;1.90;;
9836;SDS011;4957;51.412;6.724;2023-06-14T09:17:51;2.93;;;1.70;;
9836;SDS011;4957;51.412;6.724;2023-06-14T09:20:18;5.37;;;1.70;;
9836;SDS011;4957;51.412;6.724;2023-06-14T09:22:44;1.53;;;1.43;;
9836;SDS011;4957;51.412;6.724;2023-06-14T09:25:10;4.80;;;1.50;;
9836;SDS011;4957;51.412;6.724;2023-06-14T09:27:43;4.87;;;1.47;;
9836;SDS011;4957;51.412;6.724;2023-06-14T09:30:11;5.47;;;1.60;;
9836;SDS011;4957;51.412;6.724;2023-06-14T09:32:41;2.70;;;1.50;;
9836;SDS011;4957;51.412;6.724;2023-06-14T09:35:07;8.37;;;2.20;;
9836;SDS011;4957;51.412;6.724;2023-06-14T09:37:33;13.23;;;2.03;;
9836;SDS011;4957;51.412;6.724;2023-06-14T09:40:00;6.33;;;1.90;;
9836;SDS011;4957;51.412;6.724;2023-06-14T09:42:26;4.77;;;1.47;;
9836;SDS011;4957;51.412;6.724;2023-06-14T09:44:53;2.60;;;1.37;;
9836;SDS011;4957;51.412;6.724;2023-06-14T09:47:20;8.23;;;1.53;;
9836;SDS011;4957;51.412;6.724;2023-06-14T09:49:47;4.40;;;1.30;;
9836;SDS011;4957;51.412;6.724;2023-06-14T09:52:19;7.03;;;1.90;;
9836;SDS011;4957;51.412;6.724;2023-06-14T09:54:47;13.80;;;2.30;;
9836;SDS011;4957;51.412;6.724;2023-06-14T09:57:17;14.87;;;2.10;;
9836;SDS011;4957;51.412;6.724;2023-06-14T09:59:47;4.33;;;1.60;;
9836;SDS011;4957;51.412;6.724;2023-06-14T10:02:28;3.27;;;1.30;;
9836;SDS011;4957;51.412;6.724;2023-06-14T10:05:05;3.73;;;1.93;;
9836;SDS011;4957;51.412;6.724;2023-06-14T10:07:35;1.47;;;1.33;;
9836;SDS011;4957;51.412;6.724;2023-06-14T10:10:17;2.00;;;1.20;;
9836;SDS011;4957;51.412;6.724;2023-06-14T10:12:43;4.30;;;1.10;;
9836;SDS011;4957;51.412;6.724;2023-06-14T10:15:10;1.60;;;1.30;;
9836;SDS011;4957;51.412;6.724;2023-06-14T10:17:43;13.10;;;2.80;;
9836;SDS011;4957;51.412;6.724;2023-06-14T10:22:43;3.90;;;1.60;;
9836;SDS011;4957;51.412;6.724;2023-06-14T10:25:25;4.60;;;1.40;;
9836;SDS011;4957;51.412;6.724;2023-06-14T10:27:53;1.20;;;1.00;;
9836;SDS011;4957;51.412;6.724;2023-06-14T10:30:28;4.90;;;0.97;;
9836;SDS011;4957;51.412;6.724;2023-06-14T10:33:03;3.10;;;1.30;;
9836;SDS011;4957;51.412;6.724;2023-06-14T10:35:31;3.73;;;1.80;;
9836;SDS011;4957;51.412;6.724;2023-06-14T10:38:06;2.60;;;1.10;;
9836;SDS011;4957;51.412;6.724;2023-06-14T10:40:32;5.60;;;1.80;;
9836;SDS011;4957;51.412;6.724;2023-06-14T10:42:59;2.00;;;1.10;;
9836;SDS011;4957;51.412;6.724;2023-06-14T10:45:25;3.70;;;1.07;;
9836;SDS011;4957;51.412;6.724;2023-06-14T10:47:50;1.90;;;1.13;;
9836;SDS011;4957;51.412;6.724;2023-06-14T10:50:22;1.17;;;0.87;;
9836;SDS011;4957;51.412;6.724;2023-06-14T10:52:54;2.57;;;1.10;;
9836;SDS011;4957;51.412;6.724;2023-06-14T10:55:20;3.03;;;0.83;;
9836;SDS011;4957;51.412;6.724;2023-06-14T11:00:28;3.10;;;1.10;;
9836;SDS011;4957;51.412;6.724;2023-06-14T11:05:53;2.60;;;0.80;;
9836;SDS011;4957;51.412;6.724;2023-06-14T11:11:06;6.60;;;0.90;;
9836;SDS011;4957;51.412;6.724;2023-06-14T11:13:33;2.77;;;0.90;;
9836;SDS011;4957;51.412;6.724;2023-06-14T11:16:02;2.67;;;0.90;;
9836;SDS011;4957;51.412;6.724;2023-06-14T11:18:36;4.83;;;1.00;;
9836;SDS011;4957;51.412;6.724;2023-06-14T11:21:02;3.20;;;0.70;;
9836;SDS011;4957;51.412;6.724;2023-06-14T11:23:27;2.53;;;0.90;;
9836;SDS011;4957;51.412;6.724;2023-06-14T11:25:53;2.27;;;0.80;;
9836;SDS011;4957;51.412;6.724;2023-06-14T11:28:19;2.60;;;0.80;;
9836;SDS011;4957;51.412;6.724;2023-06-14T11:30:46;3.97;;;0.83;;
9836;SDS011;4957;51.412;6.724;2023-06-14T11:33:16;5.30;;;1.10;;
9836;SDS011;4957;51.412;6.724;2023-06-14T11:35:43;3.47;;;1.20;;
9836;SDS011;4957;51.412;6.724;2023-06-14T11:38:10;4.83;;;1.17;;
9836;SDS011;4957;51.412;6.724;2023-06-14T11:40:37;3.87;;;1.10;;
9836;SDS011;4957;51.412;6.724;2023-06-14T11:43:03;3.60;;;1.20;;
9836;SDS011;4957;51.412;6.724;2023-06-14T11:45:30;4.70;;;1.57;;
9836;SDS011;4957;51.412;6.724;2023-06-14T11:47:56;8.43;;;1.00;;
9836;SDS011;4957;51.412;6.724;2023-06-14T11:50:22;8.70;;;1.03;;
9836;SDS011;4957;51.412;6.724;2023-06-14T11:52:55;3.83;;;0.97;;
9836;SDS011;4957;51.412;6.724;2023-06-14T11:55:22;1.50;;;1.03;;
9836;SDS011;4957;51.412;6.724;2023-06-14T11:57:49;7.60;;;1.30;;
9836;SDS011;4957;51.412;6.724;2023-06-14T12:00:15;2.10;;;0.90;;
9836;SDS011;4957;51.412;6.724;2023-06-14T12:02:42;6.87;;;1.20;;
9836;SDS011;4957;51.412;6.724;2023-06-14T12:05:08;1.73;;;0.93;;
9836;SDS011;4957;51.412;6.724;2023-06-14T12:07:38;6.20;;;1.00;;
9836;SDS011;4957;51.412;6.724;2023-06-14T12:10:05;1.60;;;1.07;;
9836;SDS011;4957;51.412;6.724;2023-06-14T12:12:35;2.67;;;1.10;;
9836;SDS011;4957;51.412;6.724;2023-06-14T12:15:05;1.33;;;0.90;;
9836;SDS011;4957;51.412;6.724;2023-06-14T12:17:36;1.20;;;1.10;;
9836;SDS011;4957;51.412;6.724;2023-06-14T12:20:07;2.73;;;1.10;;
9836;SDS011;4957;51.412;6.724;2023-06-14T12:22:38;3.53;;;1.03;;
9836;SDS011;4957;51.412;6.724;2023-06-14T12:25:11;3.07;;;0.93;;
9836;SDS011;4957;51.412;6.724;2023-06-14T12:27:52;1.70;;;1.17;;
9836;SDS011;4957;51.412;6.724;2023-06-14T12:30:19;4.60;;;1.10;;
9836;SDS011;4957;51.412;6.724;2023-06-14T12:32:44;1.60;;;1.00;;
9836;SDS011;4957;51.412;6.724;2023-06-14T12:35:10;2.13;;;1.20;;
9836;SDS011;4957;51.412;6.724;2023-06-14T12:37:36;2.10;;;1.00;;
9836;SDS011;4957;51.412;6.724;2023-06-14T12:40:02;3.57;;;1.20;;
9836;SDS011;4957;51.412;6.724;2023-06-14T12:42:32;6.90;;;1.20;;
9836;SDS011;4957;51.412;6.724;2023-06-14T12:44:58;2.90;;;1.07;;
9836;SDS011;4957;51.412;6.724;2023-06-14T12:47:25;4.03;;;1.20;;
9836;SDS011;4957;51.412;6.724;2023-06-14T12:49:50;3.30;;;1.23;;
9836;SDS011;4957;51.412;6.724;2023-06-14T12:52:16;1.37;;;1.10;;
9836;SDS011;4957;51.412;6.724;2023-06-14T12:54:42;1.13;;;0.90;;
9836;SDS011;4957;51.412;6.724;2023-06-14T12:57:07;3.30;;;1.10;;
9836;SDS011;4957;51.412;6.724;2023-06-14T12:59:34;7.30;;;1.80;;
9836;SDS011;4957;51.412;6.724;2023-06-14T13:02:10;1.83;;;1.17;;
9836;SDS011;4957;51.412;6.724;2023-06-14T13:04:40;1.27;;;1.10;;
9836;SDS011;4957;51.412;6.724;2023-06-14T13:07:06;3.43;;;1.30;;
9836;SDS011;4957;51.412;6.724;2023-06-14T13:09:31;3.10;;;1.03;;
9836;SDS011;4957;51.412;6.724;2023-06-14T13:11:57;2.50;;;1.40;;
9836;SDS011;4957;51.412;6.724;2023-06-14T13:14:23;5.17;;;1.23;;
9836;SDS011;4957;51.412;6.724;2023-06-14T13:16:49;2.60;;;1.50;;
9836;SDS011;4957;51.412;6.724;2023-06-14T13:19:15;1.57;;;1.33;;
9836;SDS011;4957;51.412;6.724;2023-06-14T13:21:40;2.17;;;1.60;;
9836;SDS011;4957;51.412;6.724;2023-06-14T13:24:06;7.13;;;1.47;;
9836;SDS011;4957;51.412;6.724;2023-06-14T13:26:33;4.90;;;1.90;;
9836;SDS011;4957;51.412;6.724;2023-06-14T13:28:59;3.17;;;1.40;;
9836;SDS011;4957;51.412;6.724;2023-06-14T13:31:24;4.23;;;1.30;;
9836;SDS011;4957;51.412;6.724;2023-06-14T13:33:50;3.67;;;1.90;;
9836;SDS011;4957;51.412;6.724;2023-06-14T13:36:16;6.20;;;2.50;;
9836;SDS011;4957;51.412;6.724;2023-06-14T13:38:42;5.27;;;1.77;;
9836;SDS011;4957;51.412;6.724;2023-06-14T13:41:08;3.53;;;1.40;;
9836;SDS011;4957;51.412;6.724;2023-06-14T13:43:33;3.00;;;1.53;;
9836;SDS011;4957;51.412;6.724;2023-06-14T13:45:59;3.20;;;1.50;;
9836;SDS011;4957;51.412;6.724;2023-06-14T13:48:25;2.97;;;1.80;;
9836;SDS011;4957;51.412;6.724;2023-06-14T13:50:51;5.93;;;1.70;;
9836;SDS011;4957;51.412;6.724;2023-06-14T13:53:16;2.17;;;1.50;;
9836;SDS011;4957;51.412;6.724;2023-06-14T13:55:42;3.53;;;1.67;;
9836;SDS011;4957;51.412;6.724;2023-06-14T13:58:08;5.67;;;1.50;;
9836;SDS011;4957;51.412;6.724;2023-06-14T14:00:34;3.07;;;1.40;;
9836;SDS011;4957;51.412;6.724;2023-06-14T14:03:02;5.20;;;1.47;;
9836;SDS011;4957;51.412;6.724;2023-06-14T14:05:28;2.00;;;1.90;;
9836;SDS011;4957;51.412;6.724;2023-06-14T14:07:55;3.37;;;2.37;;
9836;SDS011;4957;51.412;6.724;2023-06-14T14:10:22;5.07;;;1.67;;
9836;SDS011;4957;51.412;6.724;2023-06-14T14:12:49;1.80;;;1.50;;
9836;SDS011;4957;51.412;6.724;2023-06-14T14:15:16;2.83;;;1.70;;
9836;SDS011;4957;51.412;6.724;2023-06-14T14:17:41;1.70;;;1.60;;
9836;SDS011;4957;51.412;6.724;2023-06-14T14:20:08;2.60;;;1.57;;
9836;SDS011;4957;51.412;6.724;2023-06-14T14:22:34;2.97;;;1.80;;
9836;SDS011;4957;51.412;6.724;2023-06-14T14:24:59;1.97;;;1.50;;
9836;SDS011;4957;51.412;6.724;2023-06-14T14:27:25;2.23;;;1.33;;
9836;SDS011;4957;51.412;6.724;2023-06-14T14:29:51;1.80;;;1.60;;
9836;SDS011;4957;51.412;6.724;2023-06-14T14:32:16;2.07;;;1.67;;
9836;SDS011;4957;51.412;6.724;2023-06-14T14:34:42;10.67;;;1.90;;
9836;SDS011;4957;51.412;6.724;2023-06-14T14:37:07;3.87;;;1.60;;
9836;SDS011;4957;51.412;6.724;2023-06-14T14:39:33;4.93;;;1.60;;
9836;SDS011;4957;51.412;6.724;2023-06-14T14:41:59;2.80;;;1.80;;
9836;SDS011;4957;51.412;6.724;2023-06-14T14:44:25;4.43;;;1.80;;
9836;SDS011;4957;51.412;6.724;2023-06-14T14:46:50;3.23;;;1.60;;
9836;SDS011;4957;51.412;6.724;2023-06-14T14:49:16;2.90;;;1.60;;
9836;SDS011;4957;51.412;6.724;2023-06-14T14:51:42;2.50;;;1.60;;
9836;SDS011;4957;51.412;6.724;2023-06-14T14:54:07;3.77;;;1.70;;
9836;SDS011;4957;51.412;6.724;2023-06-14T14:56:33;2.03;;;1.87;;
9836;SDS011;4957;51.412;6.724;2023-06-14T14:59:00;6.03;;;1.90;;
9836;SDS011;4957;51.412;6.724;2023-06-14T15:01:26;2.77;;;1.50;;
9836;SDS011;4957;51.412;6.724;2023-06-14T15:03:51;7.17;;;1.97;;
9836;SDS011;4957;51.412;6.724;2023-06-14T15:06:17;6.20;;;1.90;;
9836;SDS011;4957;51.412;6.724;2023-06-14T15:08:43;4.60;;;2.10;;
9836;SDS011;4957;51.412;6.724;2023-06-14T15:11:09;4.30;;;2.03;;
9836;SDS011;4957;51.412;6.724;2023-06-14T15:13:35;6.60;;;1.87;;
9836;SDS011;4957;51.412;6.724;2023-06-14T15:16:00;4.80;;;1.70;;
9836;SDS011;4957;51.412;6.724;2023-06-14T15:18:26;5.37;;;2.20;;
9836;SDS011;4957;51.412;6.724;2023-06-14T15:20:51;4.60;;;1.80;;
9836;SDS011;4957;51.412;6.724;2023-06-14T15:23:17;1.77;;;1.50;;